Time;durP1;ratioP1;P1;durP2;ratioP2;P2;SDS_P1;SDS_P2;PMS_P1;PMS_P2;Temp;Humidity;BMP_temperature;BMP_pressure;BME280_temperature;BME280_humidity;BME280_pressure;Samples;Min_cycle;Max_cycle;Signal;HPM_P1;HPM_P2
2024/04/23 00:01:26;;;;;;;1999.90;999.90;;;;;;;;;;5425936;26;20405;-86
2024/04/23 00:03:51;;;;;;;1999.90;999.90;;;;;;;;;;5429908;26;20080;-86
2024/04/23 00:06:19;;;;;;;1999.90;999.90;;;;;;;;;;5427884;26;20011;-86
2024/04/23 00:08:45;;;;;;;1999.90;999.90;;;;;;;;;;5439643;26;20003;-81
2024/04/23 00:11:16;;;;;;;1999.90;999.90;;;;;;;;;;5430721;26;20015;-85
2024/04/23 00:13:41;;;;;;;1999.90;999.90;;;;;;;;;;5433627;26;20000;-88
2024/04/23 00:16:10;;;;;;;1999.90;999.90;;;;;;;;;;5427703;26;20479;-88
2024/04/23 00:18:35;;;;;;;1999.90;999.90;;;;;;;;;;5431491;26;20054;-88
2024/04/23 00:21:04;;;;;;;1999.90;999.90;;;;;;;;;;5434893;26;20002;-88
2024/04/23 00:23:29;;;;;;;1999.90;999.90;;;;;;;;;;5430612;26;20008;-86
2024/04/23 00:25:58;;;;;;;1999.90;999.90;;;;;;;;;;5436728;26;20084;-86
2024/04/23 00:28:26;;;;;;;1999.90;999.90;;;;;;;;;;5431422;26;20101;-87
2024/04/23 00:30:54;;;;;;;1999.90;999.90;;;;;;;;;;5430813;26;20028;-86
2024/04/23 00:33:20;;;;;;;1999.90;999.90;;;;;;;;;;5422978;26;20099;-89
2024/04/23 00:35:48;;;;;;;1999.90;999.90;;;;;;;;;;5432925;26;20465;-86
2024/04/23 00:38:14;;;;;;;1999.90;999.90;;;;;;;;;;5431392;26;20018;-88
2024/04/23 00:40:42;;;;;;;1999.90;999.90;;;;;;;;;;5430068;26;20012;-87
2024/04/23 00:43:07;;;;;;;1999.90;999.90;;;;;;;;;;5442701;26;20378;-89
2024/04/23 00:45:45;;;;;;;1999.90;999.90;;;;;;;;;;5434298;26;20077;-90
2024/04/23 00:48:12;;;;;;;1999.90;999.90;;;;;;;;;;5439527;26;20011;-91
2024/04/23 00:50:50;;;;;;;1999.90;999.90;;;;;;;;;;5448192;26;20450;-88
2024/04/23 00:53:16;;;;;;;1999.90;999.90;;;;;;;;;;5426206;26;19999;-90
2024/04/23 00:55:45;;;;;;;1999.90;999.90;;;;;;;;;;5433610;26;20010;-87
2024/04/23 00:58:10;;;;;;;1999.90;999.90;;;;;;;;;;5431994;26;20011;-89
2024/04/23 01:00:41;;;;;;;1999.90;999.90;;;;;;;;;;5451114;26;20002;-89
2024/04/23 01:03:07;;;;;;;1999.90;999.90;;;;;;;;;;5438321;26;20013;-89
2024/04/23 01:05:35;;;;;;;1999.90;999.90;;;;;;;;;;5431859;26;20012;-88
2024/04/23 01:08:01;;;;;;;1999.90;999.90;;;;;;;;;;5426969;26;20075;-90
2024/04/23 01:10:29;;;;;;;1999.90;999.90;;;;;;;;;;5440575;26;20011;-90
2024/04/23 01:12:55;;;;;;;1999.90;999.90;;;;;;;;;;5444192;26;20031;-90
2024/04/23 01:15:26;;;;;;;1999.90;999.90;;;;;;;;;;5441644;26;20007;-90
2024/04/23 01:17:59;;;;;;;1999.90;999.90;;;;;;;;;;5433669;26;20011;-89
2024/04/23 01:20:32;;;;;;;1999.90;999.90;;;;;;;;;;5422493;26;20017;-88
2024/04/23 01:23:02;;;;;;;1999.90;999.90;;;;;;;;;;5423021;26;20461;-89
2024/04/23 01:25:31;;;;;;;1999.90;999.90;;;;;;;;;;5436281;26;20076;-89
2024/04/23 01:28:00;;;;;;;1999.90;999.90;;;;;;;;;;5427795;26;20019;-88
2024/04/23 01:30:28;;;;;;;1999.90;999.90;;;;;;;;;;5424293;26;20011;-86
2024/04/23 01:32:55;;;;;;;1999.90;999.90;;;;;;;;;;5426715;26;20089;-89
2024/04/23 01:35:25;;;;;;;1999.90;999.90;;;;;;;;;;5427821;26;20284;-89
2024/04/23 01:37:53;;;;;;;1999.90;999.90;;;;;;;;;;5429017;26;19999;-89
2024/04/23 01:40:22;;;;;;;1999.90;999.90;;;;;;;;;;5426384;26;20003;-89
2024/04/23 01:42:48;;;;;;;1999.90;999.90;;;;;;;;;;5420771;26;20568;-89
2024/04/23 01:45:20;;;;;;;1999.90;999.90;;;;;;;;;;5440584;26;20081;-88
2024/04/23 01:47:46;;;;;;;1999.90;999.90;;;;;;;;;;5435598;26;20018;-89
2024/04/23 01:50:21;;;;;;;1999.90;999.90;;;;;;;;;;5436417;26;20461;-87
2024/04/23 01:52:46;;;;;;;1999.90;999.90;;;;;;;;;;5434930;26;20014;-90
2024/04/23 01:55:16;;;;;;;1999.90;999.90;;;;;;;;;;5428092;26;20011;-86
2024/04/23 01:57:42;;;;;;;1999.90;999.90;;;;;;;;;;5431753;26;20011;-87
2024/04/23 02:00:15;;;;;;;1999.90;999.90;;;;;;;;;;5430414;26;20415;-85
2024/04/23 02:02:45;;;;;;;1999.90;999.90;;;;;;;;;;5429170;26;20054;-86
2024/04/23 02:05:15;;;;;;;1999.90;999.90;;;;;;;;;;5427541;26;19999;-88
2024/04/23 02:07:41;;;;;;;1999.90;999.90;;;;;;;;;;5435534;26;20149;-89
2024/04/23 02:10:09;;;;;;;1999.90;999.90;;;;;;;;;;5433241;26;20042;-85
2024/04/23 02:12:36;;;;;;;1999.90;999.90;;;;;;;;;;5435683;26;20493;-86
2024/04/23 02:15:04;;;;;;;1999.90;999.90;;;;;;;;;;5431028;26;20014;-87
2024/04/23 02:17:30;;;;;;;1999.90;999.90;;;;;;;;;;5432238;26;20015;-82
2024/04/23 02:20:01;;;;;;;1999.90;999.90;;;;;;;;;;5425052;26;20076;-86
2024/04/23 02:22:26;;;;;;;1999.90;999.90;;;;;;;;;;5425987;26;20018;-81
2024/04/23 02:24:54;;;;;;;1999.90;999.90;;;;;;;;;;5423485;26;20356;-81
2024/04/23 02:27:20;;;;;;;1999.90;999.90;;;;;;;;;;5423354;26;20490;-82
2024/04/23 02:29:48;;;;;;;1999.90;999.90;;;;;;;;;;5424664;26;20074;-81
2024/04/23 02:32:14;;;;;;;1999.90;999.90;;;;;;;;;;5421080;26;20002;-80
2024/04/23 02:34:42;;;;;;;1999.90;999.90;;;;;;;;;;5424958;26;20050;-79
2024/04/23 02:37:10;;;;;;;1999.90;999.90;;;;;;;;;;5423063;26;20084;-81
2024/04/23 02:39:39;;;;;;;1999.90;999.90;;;;;;;;;;5424136;26;20011;-86
2024/04/23 02:42:04;;;;;;;1999.90;999.90;;;;;;;;;;5429555;26;20015;-81
2024/04/23 02:44:32;;;;;;;1999.90;999.90;;;;;;;;;;5424889;26;20079;-93
2024/04/23 02:46:58;;;;;;;1999.90;999.90;;;;;;;;;;5425904;26;20496;-88
2024/04/23 02:49:27;;;;;;;1999.90;999.90;;;;;;;;;;5425903;26;20014;-88
2024/04/23 02:51:54;;;;;;;1999.90;999.90;;;;;;;;;;5448792;26;20087;-87
2024/04/23 02:54:25;;;;;;;1999.90;999.90;;;;;;;;;;5439886;26;20086;-87
2024/04/23 02:56:51;;;;;;;1999.90;999.90;;;;;;;;;;5430063;26;20041;-83
2024/04/23 02:59:19;;;;;;;1999.90;999.90;;;;;;;;;;5434334;26;20007;-85
2024/04/23 03:01:45;;;;;;;1999.90;999.90;;;;;;;;;;5438212;26;20019;-85
2024/04/23 03:04:13;;;;;;;1999.90;999.90;;;;;;;;;;5437820;26;20003;-88
2024/04/23 03:06:39;;;;;;;1999.90;999.90;;;;;;;;;;5432016;26;20080;-85
2024/04/23 03:09:07;;;;;;;1999.90;999.90;;;;;;;;;;5441355;26;20012;-86
2024/04/23 03:11:35;;;;;;;1999.90;999.90;;;;;;;;;;5444507;26;20015;-88
2024/04/23 03:14:03;;;;;;;1999.90;999.90;;;;;;;;;;5430381;26;20088;-91
2024/04/23 03:16:29;;;;;;;1999.90;999.90;;;;;;;;;;5432776;26;19999;-87
2024/04/23 03:18:57;;;;;;;1999.90;999.90;;;;;;;;;;5425824;26;20010;-87
2024/04/23 03:21:23;;;;;;;1999.90;999.90;;;;;;;;;;5429554;26;20433;-83
2024/04/23 03:23:51;;;;;;;1999.90;999.90;;;;;;;;;;5430894;26;20017;-85
2024/04/23 03:26:17;;;;;;;1999.90;999.90;;;;;;;;;;5431543;26;20011;-86
2024/04/23 03:28:48;;;;;;;1999.90;999.90;;;;;;;;;;5426130;26;20080;-84
2024/04/23 03:31:13;;;;;;;1999.90;999.90;;;;;;;;;;5436047;26;20025;-86
2024/04/23 03:33:39;;;;;;;1999.90;999.90;;;;;;;;;;5439174;26;20506;-86
2024/04/23 03:36:08;;;;;;;1999.90;999.90;;;;;;;;;;5424547;26;20023;-87
2024/04/23 03:38:36;;;;;;;1999.90;999.90;;;;;;;;;;5438331;26;20068;-88
2024/04/23 03:41:05;;;;;;;1999.90;999.90;;;;;;;;;;5429181;26;20019;-85
2024/04/23 03:43:30;;;;;;;1999.90;999.90;;;;;;;;;;5439008;26;20464;-85
2024/04/23 03:46:01;;;;;;;1999.90;999.90;;;;;;;;;;5433107;26;20015;-87
2024/04/23 03:48:30;;;;;;;1999.90;999.90;;;;;;;;;;5431909;26;20013;-87
2024/04/23 03:51:00;;;;;;;1999.90;999.90;;;;;;;;;;5435763;26;20039;-89
2024/04/23 03:53:29;;;;;;;1999.90;999.90;;;;;;;;;;5435864;26;20000;-88
2024/04/23 03:55:54;;;;;;;1999.90;999.90;;;;;;;;;;5435820;26;20483;-88
2024/04/23 03:58:23;;;;;;;1999.90;999.90;;;;;;;;;;5436507;26;20002;-87
2024/04/23 04:00:48;;;;;;;1999.90;999.90;;;;;;;;;;5438912;26;20071;-84
2024/04/23 04:06:10;;;;;;;;;;;;;;;;;;5435543;26;20017;-87
2024/04/23 04:08:41;;;;;;;1999.90;999.90;;;;;;;;;;5434173;26;19932;-87
2024/04/23 04:11:09;;;;;;;1999.90;999.90;;;;;;;;;;5425233;26;20650;-86
2024/04/23 04:13:40;;;;;;;1999.90;999.90;;;;;;;;;;5437289;26;19998;-86
2024/04/23 04:16:09;;;;;;;1999.90;999.90;;;;;;;;;;5431740;26;20349;-86
2024/04/23 04:18:37;;;;;;;1999.90;999.90;;;;;;;;;;5433453;26;20018;-86
2024/04/23 04:21:06;;;;;;;1999.90;999.90;;;;;;;;;;5420515;26;20003;-85
2024/04/23 04:23:32;;;;;;;1999.90;999.90;;;;;;;;;;5436900;26;20007;-89
2024/04/23 04:26:01;;;;;;;1999.90;999.90;;;;;;;;;;5437406;26;20076;-86
2024/04/23 04:28:26;;;;;;;1999.90;999.90;;;;;;;;;;5437615;26;20002;-88
2024/04/23 04:30:54;;;;;;;1999.90;999.90;;;;;;;;;;5428155;26;20069;-87
2024/04/23 04:33:20;;;;;;;1999.90;999.90;;;;;;;;;;5441645;26;20015;-88
2024/04/23 04:35:51;;;;;;;1999.90;999.90;;;;;;;;;;5437964;26;20346;-86
2024/04/23 04:38:16;;;;;;;1999.90;999.90;;;;;;;;;;5429905;26;20015;-81
2024/04/23 04:40:45;;;;;;;1999.90;999.90;;;;;;;;;;5420124;26;20014;-81
2024/04/23 04:43:10;;;;;;;1999.90;999.90;;;;;;;;;;5435253;26;20019;-81
2024/04/23 04:45:39;;;;;;;1999.90;999.90;;;;;;;;;;5429152;26;20000;-80
2024/04/23 04:48:05;;;;;;;1999.90;999.90;;;;;;;;;;5421509;26;20102;-81
2024/04/23 04:50:34;;;;;;;1999.90;999.90;;;;;;;;;;5428458;26;20010;-81
2024/04/23 04:53:02;;;;;;;1999.90;999.90;;;;;;;;;;5430682;26;20080;-81
2024/04/23 04:55:32;;;;;;;1999.90;999.90;;;;;;;;;;5424186;26;20003;-82
2024/04/23 04:57:58;;;;;;;1999.90;999.90;;;;;;;;;;5421009;26;19998;-82
2024/04/23 05:00:26;;;;;;;1999.90;999.90;;;;;;;;;;5429718;26;20002;-82
2024/04/23 05:02:52;;;;;;;1999.90;999.90;;;;;;;;;;5428477;26;20007;-83
2024/04/23 05:05:20;;;;;;;1999.90;999.90;;;;;;;;;;5438079;26;20010;-80
2024/04/23 05:07:45;;;;;;;1999.90;999.90;;;;;;;;;;5427569;26;20018;-83
2024/04/23 05:10:16;;;;;;;1999.90;999.90;;;;;;;;;;5433510;26;20452;-83
2024/04/23 05:12:42;;;;;;;1999.90;999.90;;;;;;;;;;5430326;26;20014;-82
2024/04/23 05:15:10;;;;;;;1999.90;999.90;;;;;;;;;;5430283;26;20431;-83
2024/04/23 05:17:36;;;;;;;1999.90;999.90;;;;;;;;;;5426136;26;20476;-84
2024/04/23 05:20:04;;;;;;;1999.90;999.90;;;;;;;;;;5431653;26;20014;-84
2024/04/23 05:22:30;;;;;;;1999.90;999.90;;;;;;;;;;5423159;26;20050;-83
2024/04/23 05:24:58;;;;;;;1999.90;999.90;;;;;;;;;;5423546;26;20532;-84
2024/04/23 05:27:26;;;;;;;1999.90;999.90;;;;;;;;;;5420232;26;20010;-84
2024/04/23 05:29:55;;;;;;;1999.90;999.90;;;;;;;;;;5424867;26;20043;-82
2024/04/23 05:35:08;;;;;;;1999.90;999.90;;;;;;;;;;5434332;26;20018;-82
2024/04/23 05:37:37;;;;;;;1999.90;999.90;;;;;;;;;;5439120;26;20006;-83
2024/04/23 05:40:07;;;;;;;1999.90;999.90;;;;;;;;;;5419491;26;19999;-83
2024/04/23 05:42:38;;;;;;;1999.90;999.90;;;;;;;;;;5429603;26;20054;-85
2024/04/23 05:45:06;;;;;;;1999.90;999.90;;;;;;;;;;5438971;26;20014;-90
2024/04/23 05:47:56;;;;;;;1999.90;999.90;;;;;;;;;;5428344;26;20008;-90
2024/04/23 05:51:05;;;;;;;1999.90;999.90;;;;;;;;;;5309979;27;20383;-90
2024/04/23 05:54:13;;;;;;;1999.90;999.90;;;;;;;;;;5287740;27;20017;-88
2024/04/23 05:56:39;;;;;;;1999.90;999.90;;;;;;;;;;5277161;27;20599;-85
2024/04/23 05:59:10;;;;;;;1999.90;999.90;;;;;;;;;;5328439;26;20015;-85
2024/04/23 06:01:35;;;;;;;1999.90;999.90;;;;;;;;;;5432771;26;20456;-88
2024/04/23 06:04:04;;;;;;;1999.90;999.90;;;;;;;;;;5437281;26;20000;-90
2024/04/23 06:06:29;;;;;;;1999.90;999.90;;;;;;;;;;5428102;26;20043;-92
2024/04/23 06:08:57;;;;;;;1999.90;999.90;;;;;;;;;;5417595;26;20004;-90
2024/04/23 06:11:23;;;;;;;1999.90;999.90;;;;;;;;;;5430990;26;20073;-90
2024/04/23 06:13:51;;;;;;;1999.90;999.90;;;;;;;;;;5433765;26;20004;-86
2024/04/23 06:16:20;;;;;;;1999.90;999.90;;;;;;;;;;5418386;26;20031;-88
2024/04/23 06:18:48;;;;;;;1999.90;999.90;;;;;;;;;;5433451;26;20014;-90
2024/04/23 06:21:26;;;;;;;1999.90;999.90;;;;;;;;;;5421417;26;20376;-86
2024/04/23 06:23:54;;;;;;;1999.90;999.90;;;;;;;;;;5429552;26;20008;-90
2024/04/23 06:26:20;;;;;;;1999.90;999.90;;;;;;;;;;5430171;26;20091;-90
2024/04/23 06:28:48;;;;;;;1999.90;999.90;;;;;;;;;;5426502;26;20011;-91
2024/04/23 06:31:14;;;;;;;1999.90;999.90;;;;;;;;;;5444892;26;20101;-90
2024/04/23 06:33:45;;;;;;;1999.90;999.90;;;;;;;;;;5447319;26;20022;-92
2024/04/23 06:36:10;;;;;;;1999.90;999.90;;;;;;;;;;5434485;26;20317;-93
2024/04/23 06:38:39;;;;;;;1999.90;999.90;;;;;;;;;;5430218;26;20017;-89
2024/04/23 06:41:04;;;;;;;1999.90;999.90;;;;;;;;;;5432527;26;20003;-91
2024/04/23 06:43:32;;;;;;;1999.90;999.90;;;;;;;;;;5428643;26;20016;-90
2024/04/23 06:45:58;;;;;;;1999.90;999.90;;;;;;;;;;5434404;26;20003;-89
2024/04/23 06:48:26;;;;;;;1999.90;999.90;;;;;;;;;;5438135;26;20004;-87
2024/04/23 06:51:05;;;;;;;1999.90;999.90;;;;;;;;;;5439430;26;19999;-91
2024/04/23 06:53:33;;;;;;;1999.90;999.90;;;;;;;;;;5431653;26;20061;-90
2024/04/23 06:56:00;;;;;;;1999.90;999.90;;;;;;;;;;5425925;26;20008;-90
2024/04/23 06:58:28;;;;;;;1999.90;999.90;;;;;;;;;;5428272;26;20014;-83
2024/04/23 07:00:57;;;;;;;1999.90;999.90;;;;;;;;;;5431749;26;20071;-82
2024/04/23 07:03:25;;;;;;;1999.90;999.90;;;;;;;;;;5427365;26;20080;-86
2024/04/23 07:05:51;;;;;;;1999.90;999.90;;;;;;;;;;5430575;26;20090;-83
2024/04/23 07:08:22;;;;;;;1999.90;999.90;;;;;;;;;;5428246;26;20012;-85
2024/04/23 07:10:48;;;;;;;1999.90;999.90;;;;;;;;;;5430839;26;19998;-84
2024/04/23 07:13:16;;;;;;;1999.90;999.90;;;;;;;;;;5429275;26;20004;-82
2024/04/23 07:15:42;;;;;;;1999.90;999.90;;;;;;;;;;5441283;26;19999;-81
2024/04/23 07:18:11;;;;;;;1999.90;999.90;;;;;;;;;;5427440;26;20467;-82
2024/04/23 07:20:38;;;;;;;1999.90;999.90;;;;;;;;;;5421435;26;20086;-82
2024/04/23 07:23:07;;;;;;;1999.90;999.90;;;;;;;;;;5435537;26;20009;-81
2024/04/23 07:25:35;;;;;;;1999.90;999.90;;;;;;;;;;5431367;26;19999;-81
2024/04/23 07:28:03;;;;;;;1999.90;999.90;;;;;;;;;;5429891;26;20014;-83
2024/04/23 07:30:29;;;;;;;1999.90;999.90;;;;;;;;;;5433292;26;20010;-89
2024/04/23 07:32:57;;;;;;;1999.90;999.90;;;;;;;;;;5427121;26;20015;-83
2024/04/23 07:35:23;;;;;;;1999.90;999.90;;;;;;;;;;5431600;26;20038;-84
2024/04/23 07:37:52;;;;;;;1999.90;999.90;;;;;;;;;;5427948;26;20433;-81
2024/04/23 07:40:18;;;;;;;1999.90;999.90;;;;;;;;;;5424146;26;20014;-81
2024/04/23 07:42:49;;;;;;;1999.90;999.90;;;;;;;;;;5432114;26;20480;-82
2024/04/23 07:45:15;;;;;;;1999.90;999.90;;;;;;;;;;5430729;26;20441;-89
2024/04/23 07:47:43;;;;;;;1999.90;999.90;;;;;;;;;;5427808;26;20015;-83
2024/04/23 07:50:12;;;;;;;1999.90;999.90;;;;;;;;;;5433348;26;20020;-80
2024/04/23 07:52:40;;;;;;;1999.90;999.90;;;;;;;;;;5426331;26;20040;-82
2024/04/23 07:55:06;;;;;;;1999.90;999.90;;;;;;;;;;5435412;26;20039;-84
2024/04/23 07:57:34;;;;;;;1999.90;999.90;;;;;;;;;;5432470;26;20003;-81
2024/04/23 08:00:03;;;;;;;1999.90;999.90;;;;;;;;;;5428209;26;20004;-84
2024/04/23 08:02:32;;;;;;;1999.90;999.90;;;;;;;;;;5425072;26;20003;-84
2024/04/23 08:04:57;;;;;;;1999.90;999.90;;;;;;;;;;5427965;26;20007;-83
2024/04/23 08:07:26;;;;;;;1999.90;999.90;;;;;;;;;;5427710;26;20472;-83
2024/04/23 08:09:51;;;;;;;1999.90;999.90;;;;;;;;;;5432407;26;19999;-84
2024/04/23 08:12:20;;;;;;;1999.90;999.90;;;;;;;;;;5431913;26;20043;-85
2024/04/23 08:14:45;;;;;;;1999.90;999.90;;;;;;;;;;5425510;26;20087;-82
2024/04/23 08:17:16;;;;;;;1999.90;999.90;;;;;;;;;;5423172;26;20848;-83
2024/04/23 08:19:47;;;;;;;1999.90;999.90;;;;;;;;;;5430183;26;20373;-82
2024/04/23 08:22:16;;;;;;;1999.90;999.90;;;;;;;;;;5432505;26;20008;-81
2024/04/23 08:24:41;;;;;;;1999.90;999.90;;;;;;;;;;5436302;26;20484;-82
2024/04/23 08:27:10;;;;;;;1999.90;999.90;;;;;;;;;;5430852;26;20015;-83
2024/04/23 08:29:35;;;;;;;1999.90;999.90;;;;;;;;;;5432414;26;20322;-83
2024/04/23 08:32:03;;;;;;;1999.90;999.90;;;;;;;;;;5431065;26;20046;-83
2024/04/23 08:34:32;;;;;;;1999.90;999.90;;;;;;;;;;5428204;26;20000;-81
2024/04/23 08:37:00;;;;;;;1999.90;999.90;;;;;;;;;;5427013;26;20003;-86
2024/04/23 08:39:26;;;;;;;1999.90;999.90;;;;;;;;;;5436064;26;20003;-89
2024/04/23 08:41:54;;;;;;;1999.90;999.90;;;;;;;;;;5434203;26;20003;-87
2024/04/23 08:44:25;;;;;;;1999.90;999.90;;;;;;;;;;5435779;26;20049;-88
2024/04/23 08:46:53;;;;;;;1999.90;999.90;;;;;;;;;;5448418;26;20468;-88
2024/04/23 08:49:22;;;;;;;1999.90;999.90;;;;;;;;;;5434059;26;20059;-87
2024/04/23 08:51:50;;;;;;;1999.90;999.90;;;;;;;;;;5436316;26;19999;-91
2024/04/23 08:54:19;;;;;;;1999.90;999.90;;;;;;;;;;5446052;26;20071;-88
2024/04/23 08:56:45;;;;;;;1999.90;999.90;;;;;;;;;;5437120;26;20056;-89
2024/04/23 08:59:16;;;;;;;1999.90;999.90;;;;;;;;;;5430729;26;20003;-86
2024/04/23 09:01:45;;;;;;;1999.90;999.90;;;;;;;;;;5430358;26;19996;-89
2024/04/23 09:04:14;;;;;;;1999.90;999.90;;;;;;;;;;5432323;26;20053;-88
2024/04/23 09:06:40;;;;;;;1999.90;999.90;;;;;;;;;;5428245;26;20095;-85
2024/04/23 09:09:15;;;;;;;1999.90;999.90;;;;;;;;;;5426703;26;20000;-87
2024/04/23 09:11:42;;;;;;;1999.90;999.90;;;;;;;;;;5431736;26;20109;-85
2024/04/23 09:14:10;;;;;;;1999.90;999.90;;;;;;;;;;5442056;26;20014;-89
2024/04/23 09:16:35;;;;;;;1999.90;999.90;;;;;;;;;;5437901;26;20008;-84
2024/04/23 09:19:13;;;;;;;1999.90;999.90;;;;;;;;;;5441223;26;20015;-89
2024/04/23 09:21:38;;;;;;;1999.90;999.90;;;;;;;;;;5422771;26;20011;-85
2024/04/23 09:24:08;;;;;;;1999.90;999.90;;;;;;;;;;5430471;26;20461;-88
2024/04/23 09:26:37;;;;;;;1999.90;999.90;;;;;;;;;;5429283;26;20014;-89
2024/04/23 09:29:07;;;;;;;1999.90;999.90;;;;;;;;;;5424967;26;20003;-88
2024/04/23 09:31:35;;;;;;;1999.90;999.90;;;;;;;;;;5438405;26;20627;-86
2024/04/23 09:34:04;;;;;;;1999.90;999.90;;;;;;;;;;5432587;26;20013;-90
2024/04/23 09:36:32;;;;;;;1999.90;999.90;;;;;;;;;;5431601;26;20007;-88
2024/04/23 09:39:02;;;;;;;1999.90;999.90;;;;;;;;;;5429302;26;19999;-89
2024/04/23 09:41:28;;;;;;;1999.90;999.90;;;;;;;;;;5426645;26;20000;-91
2024/04/23 09:44:02;;;;;;;1999.90;999.90;;;;;;;;;;5432451;26;20007;-88
2024/04/23 09:46:30;;;;;;;1999.90;999.90;;;;;;;;;;5434416;26;20080;-88
2024/04/23 09:48:59;;;;;;;1999.90;999.90;;;;;;;;;;5433003;26;20089;-89
2024/04/23 09:51:28;;;;;;;1999.90;999.90;;;;;;;;;;5435866;26;20023;-88
2024/04/23 09:53:57;;;;;;;1999.90;999.90;;;;;;;;;;5424545;26;20043;-87
2024/04/23 09:56:23;;;;;;;1999.90;999.90;;;;;;;;;;5440575;26;20098;-88
2024/04/23 09:58:51;;;;;;;1999.90;999.90;;;;;;;;;;5424838;26;20011;-86
2024/04/23 10:01:21;;;;;;;1999.90;999.90;;;;;;;;;;5441057;26;20019;-86
2024/04/23 10:03:52;;;;;;;1999.90;999.90;;;;;;;;;;5450727;26;20003;-84
2024/04/23 10:06:23;;;;;;;1999.90;999.90;;;;;;;;;;5446868;26;20473;-89
2024/04/23 10:08:56;;;;;;;1999.90;999.90;;;;;;;;;;5435943;26;19999;-91
2024/04/23 10:11:26;;;;;;;1999.90;999.90;;;;;;;;;;5441023;26;20083;-90
2024/04/23 10:13:57;;;;;;;1999.90;999.90;;;;;;;;;;5429173;26;20032;-90
2024/04/23 10:16:34;;;;;;;1999.90;999.90;;;;;;;;;;5435913;26;19999;-85
2024/04/23 10:19:05;;;;;;;1999.90;999.90;;;;;;;;;;5434348;26;20013;-86
2024/04/23 10:21:37;;;;;;;1999.90;999.90;;;;;;;;;;5432576;26;19999;-86
2024/04/23 10:24:07;;;;;;;1999.90;999.90;;;;;;;;;;5434997;26;19998;-89
2024/04/23 10:26:37;;;;;;;1999.90;999.90;;;;;;;;;;5437387;26;20003;-87
2024/04/23 10:29:03;;;;;;;1999.90;999.90;;;;;;;;;;5439338;26;20007;-88
2024/04/23 10:31:34;;;;;;;1999.90;999.90;;;;;;;;;;5424073;26;20010;-87
2024/04/23 10:34:02;;;;;;;1999.90;999.90;;;;;;;;;;5427458;26;20067;-88
2024/04/23 10:36:31;;;;;;;1999.90;999.90;;;;;;;;;;5425470;26;20406;-88
2024/04/23 10:38:58;;;;;;;1999.90;999.90;;;;;;;;;;5439625;26;20003;-85
2024/04/23 10:41:28;;;;;;;1999.90;999.90;;;;;;;;;;5439720;26;19999;-86
2024/04/23 10:43:57;;;;;;;1999.90;999.90;;;;;;;;;;5444168;26;20963;-85
2024/04/23 10:46:22;;;;;;;1999.90;999.90;;;;;;;;;;5428337;26;20024;-87
2024/04/23 10:49:00;;;;;;;1999.90;999.90;;;;;;;;;;5435298;26;20517;-89
2024/04/23 10:51:26;;;;;;;1999.90;999.90;;;;;;;;;;5429766;26;20011;-88
2024/04/23 10:53:55;;;;;;;1999.90;999.90;;;;;;;;;;5422892;26;20022;-85
2024/04/23 10:56:23;;;;;;;1999.90;999.90;;;;;;;;;;5443401;26;20816;-88
2024/04/23 10:58:51;;;;;;;1999.90;999.90;;;;;;;;;;5443490;26;20006;-88
2024/04/23 11:01:23;;;;;;;1999.90;999.90;;;;;;;;;;5428898;26;20080;-88
2024/04/23 11:04:00;;;;;;;1999.90;999.90;;;;;;;;;;5430427;26;20035;-88
2024/04/23 11:06:35;;;;;;;1999.90;999.90;;;;;;;;;;5441284;26;20023;-87
2024/04/23 11:09:17;;;;;;;1999.90;999.90;;;;;;;;;;5435999;26;20000;-86
2024/04/23 11:11:48;;;;;;;1999.90;999.90;;;;;;;;;;5430863;26;20018;-89
2024/04/23 11:14:16;;;;;;;1999.90;999.90;;;;;;;;;;5428781;26;20003;-89
2024/04/23 11:16:42;;;;;;;1999.90;999.90;;;;;;;;;;5437097;26;20055;-87
2024/04/23 11:19:24;;;;;;;1999.90;999.90;;;;;;;;;;5428537;26;20530;-87
2024/04/23 11:21:52;;;;;;;1999.90;999.90;;;;;;;;;;5425713;26;20002;-91
2024/04/23 11:24:23;;;;;;;1999.90;999.90;;;;;;;;;;5448094;26;20406;-88
2024/04/23 11:26:48;;;;;;;1999.90;999.90;;;;;;;;;;5432560;26;20004;-88
2024/04/23 11:29:17;;;;;;;1999.90;999.90;;;;;;;;;;5432744;26;20015;-87
2024/04/23 11:31:42;;;;;;;1999.90;999.90;;;;;;;;;;5424193;26;20097;-87
2024/04/23 11:34:11;;;;;;;1999.90;999.90;;;;;;;;;;5442034;26;20007;-88
2024/04/23 11:36:42;;;;;;;1999.90;999.90;;;;;;;;;;5432067;26;20003;-83
2024/04/23 11:39:10;;;;;;;1999.90;999.90;;;;;;;;;;5440658;26;20050;-88
2024/04/23 11:41:40;;;;;;;1999.90;999.90;;;;;;;;;;5430521;26;20012;-89
2024/04/23 11:44:08;;;;;;;1999.90;999.90;;;;;;;;;;5440738;26;20003;-89
2024/04/23 11:46:39;;;;;;;1999.90;999.90;;;;;;;;;;5434692;26;20003;-87
2024/04/23 11:49:11;;;;;;;1999.90;999.90;;;;;;;;;;5435328;26;20512;-88
2024/04/23 11:51:40;;;;;;;1999.90;999.90;;;;;;;;;;5442453;26;20007;-89
2024/04/23 11:54:08;;;;;;;1999.90;999.90;;;;;;;;;;5446931;26;20002;-88
2024/04/23 11:56:34;;;;;;;1999.90;999.90;;;;;;;;;;5439509;26;20092;-88
2024/04/23 11:59:05;;;;;;;1999.90;999.90;;;;;;;;;;5427061;26;20007;-89
2024/04/23 12:01:31;;;;;;;1999.90;999.90;;;;;;;;;;5426119;26;20018;-88
2024/04/23 12:04:00;;;;;;;1999.90;999.90;;;;;;;;;;5439801;26;20006;-93
2024/04/23 12:06:26;;;;;;;1999.90;999.90;;;;;;;;;;5431943;26;20035;-87
2024/04/23 12:08:57;;;;;;;1999.90;999.90;;;;;;;;;;5430615;26;20003;-90
2024/04/23 12:11:23;;;;;;;1999.90;999.90;;;;;;;;;;5436090;26;20075;-89
2024/04/23 12:13:51;;;;;;;1999.90;999.90;;;;;;;;;;5429832;26;20015;-88
2024/04/23 12:16:17;;;;;;;1999.90;999.90;;;;;;;;;;5436602;26;20092;-86
2024/04/23 12:18:45;;;;;;;1999.90;999.90;;;;;;;;;;5429829;26;20012;-87
2024/04/23 12:21:15;;;;;;;1999.90;999.90;;;;;;;;;;5451393;26;20083;-90
2024/04/23 12:23:44;;;;;;;1999.90;999.90;;;;;;;;;;5434367;26;20072;-89
2024/04/23 12:26:13;;;;;;;1999.90;999.90;;;;;;;;;;5431874;26;20032;-88
2024/04/23 12:28:42;;;;;;;1999.90;999.90;;;;;;;;;;5427554;26;20023;-91
2024/04/23 12:31:07;;;;;;;1999.90;999.90;;;;;;;;;;5423510;26;20436;-89
2024/04/23 12:33:36;;;;;;;1999.90;999.90;;;;;;;;;;5424395;26;20008;-88
2024/04/23 12:36:07;;;;;;;1999.90;999.90;;;;;;;;;;5434482;26;20014;-88
2024/04/23 12:38:43;;;;;;;1999.90;999.90;;;;;;;;;;5429755;26;20014;-88
2024/04/23 12:41:14;;;;;;;1999.90;999.90;;;;;;;;;;5422853;26;20003;-88
2024/04/23 12:43:43;;;;;;;1999.90;999.90;;;;;;;;;;5437973;26;19995;-85
2024/04/23 12:46:09;;;;;;;1999.90;999.90;;;;;;;;;;5431102;26;20003;-91
2024/04/23 12:48:37;;;;;;;1999.90;999.90;;;;;;;;;;5429785;26;20003;-81
2024/04/23 12:51:03;;;;;;;1999.90;999.90;;;;;;;;;;5424773;26;20084;-81
2024/04/23 12:53:32;;;;;;;1999.90;999.90;;;;;;;;;;5430465;26;20010;-83
2024/04/23 12:56:00;;;;;;;1999.90;999.90;;;;;;;;;;5427682;26;20018;-82
2024/04/23 12:58:30;;;;;;;1999.90;999.90;;;;;;;;;;5424797;26;20479;-83
2024/04/23 13:00:59;;;;;;;1999.90;999.90;;;;;;;;;;5430021;26;20070;-82
2024/04/23 13:03:27;;;;;;;1999.90;999.90;;;;;;;;;;5426061;26;20003;-81
2024/04/23 13:05:53;;;;;;;1999.90;999.90;;;;;;;;;;5432807;26;20042;-81
2024/04/23 13:08:21;;;;;;;1999.90;999.90;;;;;;;;;;5426676;26;20423;-82
2024/04/23 13:10:47;;;;;;;1999.90;999.90;;;;;;;;;;5425699;26;20003;-81
2024/04/23 13:13:15;;;;;;;1999.90;999.90;;;;;;;;;;5426681;26;20014;-81
2024/04/23 13:15:44;;;;;;;1999.90;999.90;;;;;;;;;;5430789;26;20018;-82
2024/04/23 13:18:12;;;;;;;1999.90;999.90;;;;;;;;;;5436525;26;20479;-92
2024/04/23 13:20:41;;;;;;;1999.90;999.90;;;;;;;;;;5438479;26;20087;-91
2024/04/23 13:23:06;;;;;;;1999.90;999.90;;;;;;;;;;5430959;26;20402;-95
2024/04/23 13:25:35;;;;;;;1999.90;999.90;;;;;;;;;;5431787;26;20003;-92
2024/04/23 13:28:02;;;;;;;1999.90;999.90;;;;;;;;;;5440502;26;20003;-90
2024/04/23 13:30:30;;;;;;;1999.90;999.90;;;;;;;;;;5450036;26;20457;-88
2024/04/23 13:32:59;;;;;;;1999.90;999.90;;;;;;;;;;5438468;26;20004;-89
2024/04/23 13:35:27;;;;;;;1999.90;999.90;;;;;;;;;;5443314;26;20017;-93
2024/04/23 13:37:52;;;;;;;1999.90;999.90;;;;;;;;;;5432578;26;19999;-91
2024/04/23 13:40:21;;;;;;;1999.90;999.90;;;;;;;;;;5440471;26;20611;-88
2024/04/23 13:42:47;;;;;;;1999.90;999.90;;;;;;;;;;5449569;26;20141;-89
2024/04/23 13:45:15;;;;;;;1999.90;999.90;;;;;;;;;;5434553;26;20003;-91
2024/04/23 13:47:43;;;;;;;1999.90;999.90;;;;;;;;;;5439642;26;20464;-91
2024/04/23 13:50:39;;;;;;;1999.90;999.90;;;;;;;;;;5432325;26;20000;-88
2024/04/23 13:53:05;;;;;;;1999.90;999.90;;;;;;;;;;5432305;26;20039;-87
2024/04/23 13:55:34;;;;;;;1999.90;999.90;;;;;;;;;;5441435;26;20527;-88